Terminal Aerodrome Forecast
Issued by NWS

Home | Current Version | Previous Version | Text Only | Print | Product List | Glossary On
Versions: 1 2 3 4 5 6 7 8 9 10 11 12 13 14
000
FTUS46 KLOX 251100
TAFLGB
TAF
KLGB 251131Z 2512/2612 VRB03KT P6SM BKN008 BKN150
     FM251700 VRB03KT P6SM FEW010 BKN150
     FM252000 19007KT P6SM BKN150
     FM252300 30010KT P6SM BKN150
     FM260500 VRB03KT P6SM SCT150
     FM260800 VRB03KT P6SM BKN010=

USA.gov is the U.S. government's official web portal to all federal, state and local government web resources and services.